SWA756 MPTO-SKBQ
Flight info
| Callsign | SWA756 |
|---|---|
| Flight time | 1h 10m |
| Altitude | 37000 |
| Route | EGETA3A EGETA DCT SIROT UM525 BITIX DCT VARON VARON2C |
| Aircraft | B737/M-SDE2E3FGHIRWXY/LB1 |
Departure
| Time | 2026-04-29 13:00 |
|---|---|
| Airport | Tocumen International Airport (MPTO) |
Arrival
| Time | 2026-04-29 14:11 |
|---|---|
| Airport | Ernesto Cortissoz International Airport (SKBQ) |
| Time | Latitude | Longitude | Altitude | Speed | Heading |
|---|---|---|---|---|---|
| 2026-04-29 11:59 | 9.06307 | -79.38895 | 29 ft | 0 kts | 282° |
| 2026-04-29 12:48 | 9.06305 | -79.38880 | 29 ft | 4 kts | 277° |
| 2026-04-29 12:48 | 9.06303 | -79.38853 | 29 ft | 4 kts | 264° |
| 2026-04-29 12:48 | 9.06309 | -79.38827 | 29 ft | 4 kts | 239° |
| 2026-04-29 12:48 | 9.06326 | -79.38811 | 29 ft | 3 kts | 189° |
| 2026-04-29 12:49 | 9.06330 | -79.38810 | 29 ft | 0 kts | 185° |
| 2026-04-29 12:53 | 9.06314 | -79.38811 | 29 ft | 5 kts | 181° |
| 2026-04-29 12:53 | 9.06254 | -79.38812 | 29 ft | 11 kts | 185° |
| 2026-04-29 12:53 | 9.06177 | -79.38843 | 29 ft | 12 kts | 217° |
| 2026-04-29 12:53 | 9.06126 | -79.38906 | 29 ft | 11 kts | 240° |
| 2026-04-29 12:54 | 9.06083 | -79.38966 | 29 ft | 10 kts | 227° |
| 2026-04-29 12:54 | 9.06034 | -79.39010 | 29 ft | 9 kts | 217° |
| 2026-04-29 12:54 | 9.05986 | -79.39042 | 29 ft | 8 kts | 211° |
| 2026-04-29 12:54 | 9.05941 | -79.39068 | 29 ft | 7 kts | 208° |
| 2026-04-29 12:55 | 9.05899 | -79.39091 | 29 ft | 7 kts | 207° |
| 2026-04-29 12:55 | 9.05857 | -79.39115 | 29 ft | 7 kts | 216° |
| 2026-04-29 12:55 | 9.05817 | -79.39146 | 29 ft | 7 kts | 211° |
| 2026-04-29 12:55 | 9.05768 | -79.39169 | 29 ft | 8 kts | 201° |
| 2026-04-29 12:56 | 9.05715 | -79.39166 | 29 ft | 8 kts | 139° |
| 2026-04-29 12:56 | 9.05682 | -79.39118 | 29 ft | 9 kts | 122° |
| 2026-04-29 12:56 | 9.05652 | -79.39064 | 29 ft | 9 kts | 119° |
| 2026-04-29 12:56 | 9.05621 | -79.39006 | 29 ft | 10 kts | 121° |
| 2026-04-29 12:57 | 9.05565 | -79.38980 | 29 ft | 9 kts | 198° |
| 2026-04-29 12:57 | 9.05507 | -79.39015 | 29 ft | 10 kts | 212° |
| 2026-04-29 12:57 | 9.05448 | -79.39053 | 29 ft | 10 kts | 208° |
| 2026-04-29 12:57 | 9.05384 | -79.39091 | 29 ft | 11 kts | 211° |
| 2026-04-29 12:58 | 9.05316 | -79.39129 | 29 ft | 11 kts | 209° |
| 2026-04-29 12:58 | 9.05245 | -79.39170 | 29 ft | 12 kts | 210° |
| 2026-04-29 12:58 | 9.05172 | -79.39213 | 29 ft | 12 kts | 210° |
| 2026-04-29 12:58 | 9.05094 | -79.39255 | 29 ft | 13 kts | 209° |
| 2026-04-29 12:59 | 9.05015 | -79.39302 | 29 ft | 13 kts | 213° |
| 2026-04-29 12:59 | 9.04932 | -79.39347 | 29 ft | 14 kts | 210° |
| 2026-04-29 12:59 | 9.04845 | -79.39373 | 29 ft | 13 kts | 152° |
| 2026-04-29 12:59 | 9.04795 | -79.39298 | 30 ft | 13 kts | 118° |
| 2026-04-29 13:00 | 9.04823 | -79.39230 | 29 ft | 17 kts | 34° |
| 2026-04-29 13:00 | 9.05302 | -79.38955 | 30 ft | 137 kts | 30° |
| 2026-04-29 13:00 | 9.06391 | -79.38331 | 480 ft | 200 kts | 29° |
| 2026-04-29 13:00 | 9.07555 | -79.37685 | 2342 ft | 177 kts | 22° |
| 2026-04-29 13:01 | 9.08789 | -79.37297 | 3748 ft | 202 kts | 29° |
| 2026-04-29 13:01 | 9.10138 | -79.36615 | 4144 ft | 250 kts | 11° |
| 2026-04-29 13:01 | 9.12180 | -79.37260 | 3874 ft | 338 kts | 341° |
| 2026-04-29 13:01 | 9.14551 | -79.37975 | 4596 ft | 379 kts | 346° |
| 2026-04-29 13:02 | 9.17148 | -79.38930 | 5433 ft | 284 kts | 352° |
| 2026-04-29 13:02 | 9.19072 | -79.38437 | 5279 ft | 325 kts | 39° |
| 2026-04-29 13:02 | 9.19998 | -79.37219 | 6075 ft | 331 kts | 65° |
| 2026-04-29 13:02 | 9.20898 | -79.34354 | 8826 ft | 306 kts | 73° |
| 2026-04-29 13:03 | 9.21283 | -79.33011 | 10028 ft | 295 kts | 72° |
| 2026-04-29 13:03 | 9.21906 | -79.31048 | 11371 ft | 297 kts | 71° |
| 2026-04-29 13:03 | 9.23012 | -79.28355 | 11947 ft | 316 kts | 63° |
| 2026-04-29 13:03 | 9.23757 | -79.27072 | 11980 ft | 323 kts | 57° |
| 2026-04-29 13:04 | 9.25637 | -79.24693 | 11996 ft | 323 kts | 47° |
| 2026-04-29 13:04 | 9.26684 | -79.23628 | 11999 ft | 322 kts | 44° |
| 2026-04-29 13:04 | 9.28346 | -79.22120 | 12011 ft | 320 kts | 41° |
| 2026-04-29 13:04 | 9.30067 | -79.20685 | 12008 ft | 320 kts | 39° |
| 2026-04-29 13:05 | 9.31819 | -79.19293 | 11997 ft | 320 kts | 38° |
| 2026-04-29 13:05 | 9.33585 | -79.17923 | 12000 ft | 320 kts | 38° |
| 2026-04-29 13:05 | 9.35357 | -79.16564 | 12011 ft | 320 kts | 38° |
| 2026-04-29 13:05 | 9.37142 | -79.15200 | 12008 ft | 321 kts | 38° |
| 2026-04-29 13:06 | 9.38927 | -79.13837 | 11998 ft | 322 kts | 38° |
| 2026-04-29 13:06 | 9.40717 | -79.12472 | 12002 ft | 323 kts | 38° |
| 2026-04-29 13:06 | 9.42509 | -79.11106 | 12004 ft | 323 kts | 38° |
| 2026-04-29 13:06 | 9.44307 | -79.09735 | 11997 ft | 324 kts | 38° |
| 2026-04-29 13:07 | 9.46091 | -79.08342 | 11984 ft | 323 kts | 43° |
| 2026-04-29 13:07 | 9.47422 | -79.06531 | 12031 ft | 325 kts | 66° |
| 2026-04-29 13:07 | 9.48171 | -79.04354 | 12861 ft | 329 kts | 73° |
| 2026-04-29 13:07 | 9.48842 | -79.02137 | 14020 ft | 330 kts | 73° |
| 2026-04-29 13:08 | 9.49511 | -78.99891 | 15013 ft | 336 kts | 74° |
| 2026-04-29 13:08 | 9.50194 | -78.97598 | 15942 ft | 343 kts | 74° |
| 2026-04-29 13:08 | 9.50893 | -78.95266 | 16844 ft | 349 kts | 74° |
| 2026-04-29 13:08 | 9.51610 | -78.92890 | 17726 ft | 356 kts | 74° |
| 2026-04-29 13:09 | 9.52342 | -78.90476 | 18588 ft | 362 kts | 74° |
| 2026-04-29 13:09 | 9.53092 | -78.88020 | 19414 ft | 368 kts | 74° |
| 2026-04-29 13:09 | 9.53853 | -78.85529 | 20227 ft | 373 kts | 74° |
| 2026-04-29 13:09 | 9.54625 | -78.82998 | 21022 ft | 378 kts | 74° |
| 2026-04-29 13:10 | 9.55409 | -78.80433 | 21781 ft | 384 kts | 74° |
| 2026-04-29 13:10 | 9.56202 | -78.77832 | 22511 ft | 389 kts | 74° |
| 2026-04-29 13:10 | 9.57006 | -78.75195 | 23207 ft | 394 kts | 74° |
| 2026-04-29 13:10 | 9.57822 | -78.72521 | 23829 ft | 400 kts | 74° |
| 2026-04-29 13:11 | 9.58645 | -78.69822 | 23983 ft | 402 kts | 74° |
| 2026-04-29 13:11 | 9.59460 | -78.67149 | 23992 ft | 402 kts | 74° |
| 2026-04-29 13:11 | 9.60295 | -78.64412 | 24001 ft | 401 kts | 74° |
| 2026-04-29 13:11 | 9.61108 | -78.61744 | 24007 ft | 401 kts | 74° |
| 2026-04-29 13:12 | 9.61930 | -78.59048 | 24006 ft | 401 kts | 74° |
| 2026-04-29 13:12 | 9.62855 | -78.56386 | 23995 ft | 401 kts | 66° |
| 2026-04-29 13:12 | 9.64189 | -78.53899 | 24009 ft | 402 kts | 57° |
| 2026-04-29 13:12 | 9.65895 | -78.51654 | 24013 ft | 403 kts | 51° |
| 2026-04-29 13:13 | 9.67705 | -78.49484 | 24002 ft | 403 kts | 50° |
| 2026-04-29 13:13 | 9.69533 | -78.47335 | 23999 ft | 403 kts | 50° |
| 2026-04-29 13:13 | 9.71367 | -78.45180 | 24000 ft | 403 kts | 50° |
| 2026-04-29 13:13 | 9.73194 | -78.43025 | 24000 ft | 403 kts | 50° |
| 2026-04-29 13:14 | 9.75014 | -78.40862 | 24001 ft | 403 kts | 50° |
| 2026-04-29 13:14 | 9.76825 | -78.38698 | 23999 ft | 403 kts | 50° |
| 2026-04-29 13:14 | 9.78634 | -78.36527 | 23998 ft | 403 kts | 50° |
| 2026-04-29 13:14 | 9.80440 | -78.34358 | 23999 ft | 402 kts | 50° |
| 2026-04-29 13:15 | 9.82238 | -78.32193 | 24001 ft | 402 kts | 50° |
| 2026-04-29 13:15 | 9.84040 | -78.30023 | 24001 ft | 402 kts | 50° |
| 2026-04-29 13:15 | 9.85842 | -78.27852 | 24000 ft | 402 kts | 50° |
| 2026-04-29 13:15 | 9.87642 | -78.25684 | 23998 ft | 402 kts | 50° |
| 2026-04-29 13:16 | 9.89444 | -78.23512 | 23994 ft | 403 kts | 50° |
| 2026-04-29 13:16 | 9.91248 | -78.21337 | 23991 ft | 403 kts | 50° |
| 2026-04-29 13:16 | 9.93053 | -78.19162 | 23988 ft | 403 kts | 50° |
| 2026-04-29 13:16 | 9.94853 | -78.16991 | 23992 ft | 403 kts | 50° |
| 2026-04-29 13:17 | 9.96658 | -78.14816 | 23993 ft | 403 kts | 50° |
| 2026-04-29 13:17 | 9.98464 | -78.12639 | 23991 ft | 403 kts | 50° |
| 2026-04-29 13:17 | 10.00265 | -78.10467 | 23992 ft | 403 kts | 50° |
| 2026-04-29 13:17 | 10.02046 | -78.08319 | 23992 ft | 403 kts | 50° |
| 2026-04-29 13:18 | 10.03848 | -78.06144 | 23986 ft | 403 kts | 50° |
| 2026-04-29 13:18 | 10.05650 | -78.03970 | 23987 ft | 402 kts | 50° |
| 2026-04-29 13:18 | 10.07451 | -78.01797 | 23991 ft | 402 kts | 50° |
| 2026-04-29 13:18 | 10.09247 | -77.99628 | 23992 ft | 402 kts | 50° |
| 2026-04-29 13:19 | 10.11045 | -77.97457 | 23991 ft | 402 kts | 50° |
| 2026-04-29 13:19 | 10.12846 | -77.95284 | 23991 ft | 402 kts | 50° |
| 2026-04-29 13:19 | 10.14645 | -77.93113 | 23992 ft | 402 kts | 50° |
| 2026-04-29 13:19 | 10.16445 | -77.90938 | 23991 ft | 403 kts | 50° |
| 2026-04-29 13:20 | 10.18248 | -77.88759 | 23992 ft | 403 kts | 50° |
| 2026-04-29 13:20 | 10.20052 | -77.86578 | 23992 ft | 404 kts | 50° |
| 2026-04-29 13:20 | 10.21858 | -77.84394 | 23991 ft | 404 kts | 50° |
| 2026-04-29 13:20 | 10.23665 | -77.82208 | 23991 ft | 404 kts | 50° |
| 2026-04-29 13:21 | 10.25473 | -77.80022 | 23993 ft | 405 kts | 50° |
| 2026-04-29 13:21 | 10.27284 | -77.77832 | 23989 ft | 405 kts | 50° |
| 2026-04-29 13:21 | 10.29094 | -77.75642 | 23989 ft | 405 kts | 50° |
| 2026-04-29 13:21 | 10.30901 | -77.73455 | 23993 ft | 404 kts | 50° |
| 2026-04-29 13:22 | 10.32710 | -77.71267 | 23996 ft | 405 kts | 50° |
| 2026-04-29 13:22 | 10.34523 | -77.69072 | 23999 ft | 405 kts | 50° |
| 2026-04-29 13:22 | 10.36333 | -77.66880 | 23985 ft | 405 kts | 50° |
| 2026-04-29 13:22 | 10.38146 | -77.64685 | 23988 ft | 405 kts | 50° |
| 2026-04-29 13:23 | 10.39957 | -77.62492 | 23992 ft | 405 kts | 50° |
| 2026-04-29 13:23 | 10.41766 | -77.60298 | 23991 ft | 405 kts | 50° |
| 2026-04-29 13:23 | 10.43577 | -77.58104 | 23990 ft | 405 kts | 50° |
| 2026-04-29 13:23 | 10.45386 | -77.55911 | 23991 ft | 405 kts | 50° |
| 2026-04-29 13:24 | 10.47194 | -77.53720 | 23991 ft | 405 kts | 50° |
| 2026-04-29 13:24 | 10.49003 | -77.51526 | 23992 ft | 405 kts | 50° |
| 2026-04-29 13:24 | 10.50812 | -77.49332 | 23992 ft | 405 kts | 50° |
| 2026-04-29 13:24 | 10.52596 | -77.47167 | 23995 ft | 405 kts | 50° |
| 2026-04-29 13:25 | 10.54404 | -77.44974 | 24001 ft | 405 kts | 50° |
| 2026-04-29 13:25 | 10.57502 | -77.40153 | 24562 ft | 420 kts | 67° |
| 2026-04-29 13:25 | 10.58478 | -77.37320 | 24886 ft | 430 kts | 74° |
| 2026-04-29 13:26 | 10.59318 | -77.34367 | 25196 ft | 439 kts | 75° |
| 2026-04-29 13:26 | 10.60134 | -77.31345 | 25502 ft | 448 kts | 76° |
| 2026-04-29 13:26 | 10.60959 | -77.28269 | 25806 ft | 455 kts | 76° |
| 2026-04-29 13:26 | 10.61805 | -77.25142 | 26111 ft | 461 kts | 76° |
| 2026-04-29 13:27 | 10.62669 | -77.21989 | 26454 ft | 465 kts | 75° |
| 2026-04-29 13:27 | 10.63553 | -77.18812 | 26867 ft | 468 kts | 75° |
| 2026-04-29 13:27 | 10.64445 | -77.15627 | 27253 ft | 470 kts | 75° |
| 2026-04-29 13:27 | 10.65344 | -77.12425 | 27649 ft | 472 kts | 75° |
| 2026-04-29 13:28 | 10.66249 | -77.09206 | 28045 ft | 474 kts | 75° |
| 2026-04-29 13:28 | 10.67158 | -77.05974 | 28448 ft | 476 kts | 75° |
| 2026-04-29 13:28 | 10.68069 | -77.02731 | 28841 ft | 478 kts | 75° |
| 2026-04-29 13:28 | 10.68984 | -76.99475 | 29243 ft | 480 kts | 75° |
| 2026-04-29 13:29 | 10.69903 | -76.96204 | 29641 ft | 482 kts | 75° |
| 2026-04-29 13:29 | 10.70825 | -76.92922 | 30045 ft | 483 kts | 75° |
| 2026-04-29 13:29 | 10.71748 | -76.89632 | 30439 ft | 485 kts | 75° |
| 2026-04-29 13:29 | 10.72671 | -76.86336 | 30835 ft | 485 kts | 75° |
| 2026-04-29 13:30 | 10.73596 | -76.83035 | 31233 ft | 485 kts | 75° |
| 2026-04-29 13:30 | 10.74520 | -76.79735 | 31629 ft | 485 kts | 75° |
| 2026-04-29 13:30 | 10.75444 | -76.76434 | 32023 ft | 485 kts | 76° |
| 2026-04-29 13:30 | 10.76366 | -76.73140 | 32419 ft | 484 kts | 76° |
| 2026-04-29 13:31 | 10.77285 | -76.69849 | 32814 ft | 483 kts | 76° |
| 2026-04-29 13:31 | 10.78203 | -76.66571 | 33208 ft | 482 kts | 76° |
| 2026-04-29 13:31 | 10.79119 | -76.63302 | 33603 ft | 480 kts | 76° |
| 2026-04-29 13:31 | 10.80030 | -76.60040 | 33997 ft | 478 kts | 76° |
| 2026-04-29 13:32 | 10.80925 | -76.56832 | 34385 ft | 477 kts | 76° |
| 2026-04-29 13:32 | 10.81829 | -76.53593 | 34777 ft | 476 kts | 76° |
| 2026-04-29 13:32 | 10.82729 | -76.50365 | 35168 ft | 474 kts | 76° |
| 2026-04-29 13:32 | 10.83628 | -76.47137 | 35561 ft | 473 kts | 76° |
| 2026-04-29 13:33 | 10.84525 | -76.43918 | 35954 ft | 473 kts | 76° |
| 2026-04-29 13:33 | 10.85421 | -76.40702 | 36348 ft | 472 kts | 76° |
| 2026-04-29 13:33 | 10.86315 | -76.37491 | 36736 ft | 472 kts | 76° |
| 2026-04-29 13:33 | 10.87215 | -76.34262 | 36869 ft | 478 kts | 76° |
| 2026-04-29 13:34 | 10.89027 | -76.27743 | 36845 ft | 470 kts | 76° |
| 2026-04-29 13:34 | 10.89907 | -76.24587 | 36708 ft | 458 kts | 76° |
| 2026-04-29 13:34 | 10.90765 | -76.21504 | 36439 ft | 449 kts | 76° |
| 2026-04-29 13:35 | 10.91609 | -76.18463 | 36027 ft | 445 kts | 76° |
| 2026-04-29 13:35 | 10.92449 | -76.15432 | 35436 ft | 446 kts | 76° |
| 2026-04-29 13:35 | 10.93292 | -76.12385 | 34706 ft | 450 kts | 76° |
| 2026-04-29 13:35 | 10.94144 | -76.09311 | 33969 ft | 453 kts | 77° |
| 2026-04-29 13:36 | 10.94996 | -76.06234 | 33436 ft | 450 kts | 76° |
| 2026-04-29 13:36 | 10.95842 | -76.03188 | 33065 ft | 444 kts | 76° |
| 2026-04-29 13:36 | 10.96675 | -76.00183 | 32664 ft | 439 kts | 76° |
| 2026-04-29 13:36 | 10.97499 | -75.97205 | 32214 ft | 436 kts | 76° |
| 2026-04-29 13:37 | 10.98318 | -75.94247 | 31761 ft | 432 kts | 76° |
| 2026-04-29 13:37 | 10.99130 | -75.91310 | 31291 ft | 429 kts | 76° |
| 2026-04-29 13:37 | 10.99935 | -75.88398 | 30829 ft | 427 kts | 75° |
| 2026-04-29 13:37 | 11.00736 | -75.85501 | 30369 ft | 424 kts | 75° |
| 2026-04-29 13:38 | 11.01530 | -75.82626 | 29954 ft | 420 kts | 75° |
| 2026-04-29 13:38 | 11.02318 | -75.79775 | 29543 ft | 416 kts | 75° |
| 2026-04-29 13:38 | 11.03092 | -75.76953 | 29113 ft | 412 kts | 77° |
| 2026-04-29 13:38 | 11.03390 | -75.74081 | 28566 ft | 407 kts | 96° |
| 2026-04-29 13:39 | 11.02829 | -75.71296 | 28100 ft | 399 kts | 110° |
| 2026-04-29 13:39 | 11.01922 | -75.68648 | 27683 ft | 394 kts | 112° |
| 2026-04-29 13:39 | 11.00973 | -75.66049 | 27205 ft | 391 kts | 112° |
| 2026-04-29 13:39 | 11.00018 | -75.63468 | 26720 ft | 388 kts | 113° |
| 2026-04-29 13:40 | 10.99077 | -75.60908 | 26266 ft | 385 kts | 112° |
| 2026-04-29 13:40 | 10.98154 | -75.58365 | 25826 ft | 381 kts | 112° |
| 2026-04-29 13:40 | 10.97248 | -75.55842 | 25368 ft | 378 kts | 112° |
| 2026-04-29 13:40 | 10.96357 | -75.53345 | 24930 ft | 374 kts | 112° |
| 2026-04-29 13:41 | 10.95475 | -75.50866 | 24484 ft | 371 kts | 111° |
| 2026-04-29 13:41 | 10.94615 | -75.48442 | 24042 ft | 367 kts | 111° |
| 2026-04-29 13:41 | 10.93752 | -75.46008 | 23592 ft | 364 kts | 111° |
| 2026-04-29 13:41 | 10.92897 | -75.43596 | 23136 ft | 361 kts | 111° |
| 2026-04-29 13:42 | 10.92048 | -75.41202 | 22689 ft | 358 kts | 111° |
| 2026-04-29 13:42 | 10.91206 | -75.38833 | 22249 ft | 355 kts | 111° |
| 2026-04-29 13:42 | 10.90372 | -75.36483 | 21809 ft | 351 kts | 111° |
| 2026-04-29 13:42 | 10.89547 | -75.34157 | 21360 ft | 348 kts | 111° |
| 2026-04-29 13:43 | 10.88728 | -75.31850 | 20899 ft | 345 kts | 111° |
| 2026-04-29 13:43 | 10.87918 | -75.29566 | 20496 ft | 341 kts | 111° |
| 2026-04-29 13:43 | 10.87119 | -75.27315 | 20149 ft | 335 kts | 111° |
| 2026-04-29 13:43 | 10.86333 | -75.25100 | 19757 ft | 331 kts | 111° |
| 2026-04-29 13:44 | 10.85555 | -75.22909 | 19320 ft | 329 kts | 111° |
| 2026-04-29 13:44 | 10.84779 | -75.20727 | 18887 ft | 327 kts | 111° |
| 2026-04-29 13:44 | 10.84011 | -75.18565 | 18479 ft | 324 kts | 111° |
| 2026-04-29 13:44 | 10.83248 | -75.16421 | 18056 ft | 320 kts | 111° |
| 2026-04-29 13:45 | 10.82493 | -75.14298 | 17632 ft | 318 kts | 111° |
| 2026-04-29 13:45 | 10.81743 | -75.12191 | 17212 ft | 316 kts | 111° |
| 2026-04-29 13:45 | 10.80999 | -75.10099 | 16790 ft | 313 kts | 111° |
| 2026-04-29 13:45 | 10.80261 | -75.08024 | 16387 ft | 311 kts | 111° |
| 2026-04-29 13:46 | 10.79529 | -75.05968 | 15968 ft | 309 kts | 111° |
| 2026-04-29 13:46 | 10.78799 | -75.03918 | 15557 ft | 306 kts | 111° |
| 2026-04-29 13:46 | 10.78078 | -75.01893 | 15147 ft | 304 kts | 111° |
| 2026-04-29 13:46 | 10.77361 | -74.99878 | 14739 ft | 302 kts | 110° |
| 2026-04-29 13:47 | 10.76657 | -74.97903 | 14569 ft | 291 kts | 110° |
| 2026-04-29 13:47 | 10.75984 | -74.96012 | 14479 ft | 278 kts | 110° |
| 2026-04-29 13:47 | 10.75340 | -74.94206 | 14390 ft | 266 kts | 111° |
| 2026-04-29 13:47 | 10.74723 | -74.92474 | 14310 ft | 255 kts | 110° |
| 2026-04-29 13:48 | 10.74542 | -74.90740 | 14187 ft | 246 kts | 76° |
| 2026-04-29 13:48 | 10.75427 | -74.89309 | 14015 ft | 242 kts | 40° |
| 2026-04-29 13:48 | 10.76777 | -74.88304 | 13737 ft | 241 kts | 38° |
| 2026-04-29 13:48 | 10.78109 | -74.87270 | 13419 ft | 241 kts | 40° |
| 2026-04-29 13:49 | 10.79410 | -74.86205 | 13146 ft | 239 kts | 41° |
| 2026-04-29 13:49 | 10.80692 | -74.85133 | 12875 ft | 238 kts | 41° |
| 2026-04-29 13:49 | 10.81964 | -74.84064 | 12598 ft | 237 kts | 41° |
| 2026-04-29 13:49 | 10.83208 | -74.83012 | 12323 ft | 235 kts | 41° |
| 2026-04-29 13:50 | 10.84459 | -74.81945 | 12039 ft | 234 kts | 41° |
| 2026-04-29 13:50 | 10.85702 | -74.80882 | 11773 ft | 232 kts | 41° |
| 2026-04-29 13:50 | 10.86936 | -74.79826 | 11508 ft | 231 kts | 41° |
| 2026-04-29 13:50 | 10.88163 | -74.78777 | 11228 ft | 230 kts | 42° |
| 2026-04-29 13:51 | 10.89385 | -74.77733 | 10943 ft | 230 kts | 42° |
| 2026-04-29 13:51 | 10.90649 | -74.76739 | 10632 ft | 231 kts | 28° |
| 2026-04-29 13:51 | 10.92222 | -74.76528 | 10374 ft | 233 kts | 347° |
| 2026-04-29 13:51 | 10.93761 | -74.77021 | 10165 ft | 233 kts | 343° |
| 2026-04-29 13:52 | 10.94800 | -74.77377 | 9999 ft | 234 kts | 343° |
| 2026-04-29 13:52 | 10.96346 | -74.77907 | 9747 ft | 234 kts | 343° |
| 2026-04-29 13:52 | 10.97884 | -74.78431 | 9498 ft | 232 kts | 343° |
| 2026-04-29 13:52 | 10.99413 | -74.78944 | 9247 ft | 231 kts | 344° |
| 2026-04-29 13:53 | 11.00914 | -74.79447 | 8997 ft | 230 kts | 345° |
| 2026-04-29 13:53 | 11.02434 | -74.79955 | 8735 ft | 229 kts | 344° |
| 2026-04-29 13:53 | 11.03946 | -74.80458 | 8490 ft | 228 kts | 345° |
| 2026-04-29 13:53 | 11.05454 | -74.80957 | 8238 ft | 227 kts | 345° |
| 2026-04-29 13:54 | 11.06976 | -74.81460 | 8009 ft | 236 kts | 345° |
| 2026-04-29 13:54 | 11.08639 | -74.82008 | 7807 ft | 263 kts | 344° |
| 2026-04-29 13:54 | 11.10421 | -74.82596 | 7566 ft | 273 kts | 344° |
| 2026-04-29 13:54 | 11.12200 | -74.83297 | 7301 ft | 278 kts | 330° |
| 2026-04-29 13:55 | 11.13545 | -74.84701 | 7035 ft | 280 kts | 300° |
| 2026-04-29 13:55 | 11.14116 | -74.86582 | 6789 ft | 280 kts | 274° |
| 2026-04-29 13:55 | 11.14042 | -74.88553 | 6562 ft | 278 kts | 263° |
| 2026-04-29 13:55 | 11.13818 | -74.90506 | 6310 ft | 278 kts | 262° |
| 2026-04-29 13:56 | 11.13567 | -74.92454 | 6079 ft | 277 kts | 262° |
| 2026-04-29 13:56 | 11.13313 | -74.94406 | 6014 ft | 278 kts | 262° |
| 2026-04-29 13:56 | 11.13065 | -74.96358 | 6000 ft | 278 kts | 262° |
| 2026-04-29 13:56 | 11.12822 | -74.98309 | 5996 ft | 278 kts | 262° |
| 2026-04-29 13:57 | 11.12583 | -75.00264 | 5979 ft | 279 kts | 262° |
| 2026-04-29 13:57 | 11.12345 | -75.02226 | 5985 ft | 278 kts | 262° |
| 2026-04-29 13:57 | 11.12111 | -75.04182 | 5988 ft | 279 kts | 262° |
| 2026-04-29 13:57 | 11.11878 | -75.06136 | 5994 ft | 278 kts | 262° |
| 2026-04-29 13:58 | 11.11645 | -75.08093 | 5987 ft | 279 kts | 262° |
| 2026-04-29 13:58 | 11.11413 | -75.10053 | 5988 ft | 278 kts | 262° |
| 2026-04-29 13:58 | 11.11159 | -75.12000 | 5985 ft | 277 kts | 256° |
| 2026-04-29 13:58 | 11.10434 | -75.13790 | 5987 ft | 274 kts | 234° |
| 2026-04-29 13:59 | 11.09131 | -75.15164 | 5982 ft | 269 kts | 211° |
| 2026-04-29 13:59 | 11.07450 | -75.15927 | 5996 ft | 264 kts | 189° |
| 2026-04-29 13:59 | 11.05643 | -75.15984 | 6004 ft | 259 kts | 168° |
| 2026-04-29 13:59 | 11.03895 | -75.15559 | 5999 ft | 258 kts | 162° |
| 2026-04-29 14:00 | 11.02160 | -75.15064 | 5988 ft | 260 kts | 162° |
| 2026-04-29 14:00 | 11.00420 | -75.14558 | 5999 ft | 260 kts | 161° |
| 2026-04-29 14:00 | 10.98669 | -75.14047 | 6006 ft | 262 kts | 161° |
| 2026-04-29 14:00 | 10.96913 | -75.13526 | 5999 ft | 264 kts | 161° |
| 2026-04-29 14:01 | 10.95149 | -75.13000 | 5962 ft | 265 kts | 161° |
| 2026-04-29 14:01 | 10.93376 | -75.12469 | 5685 ft | 263 kts | 161° |
| 2026-04-29 14:01 | 10.91639 | -75.11950 | 5439 ft | 257 kts | 161° |
| 2026-04-29 14:01 | 10.89945 | -75.11446 | 5183 ft | 251 kts | 161° |
| 2026-04-29 14:02 | 10.88287 | -75.10955 | 4923 ft | 246 kts | 161° |
| 2026-04-29 14:02 | 10.86661 | -75.10479 | 4667 ft | 241 kts | 161° |
| 2026-04-29 14:02 | 10.85063 | -75.10012 | 4416 ft | 237 kts | 161° |
| 2026-04-29 14:02 | 10.83495 | -75.09554 | 4164 ft | 233 kts | 161° |
| 2026-04-29 14:03 | 10.81941 | -75.09146 | 3903 ft | 229 kts | 163° |
| 2026-04-29 14:03 | 10.80497 | -75.08571 | 3641 ft | 224 kts | 143° |
| 2026-04-29 14:03 | 10.79458 | -75.07443 | 3400 ft | 217 kts | 117° |
| 2026-04-29 14:03 | 10.79060 | -75.06022 | 3176 ft | 205 kts | 91° |
| 2026-04-29 14:04 | 10.79270 | -75.04629 | 2950 ft | 195 kts | 77° |
| 2026-04-29 14:04 | 10.79568 | -75.03316 | 2696 ft | 186 kts | 78° |
| 2026-04-29 14:04 | 10.79851 | -75.02071 | 2450 ft | 176 kts | 77° |
| 2026-04-29 14:04 | 10.80116 | -75.00869 | 2189 ft | 174 kts | 77° |
| 2026-04-29 14:05 | 10.80376 | -74.99665 | 2035 ft | 175 kts | 76° |
| 2026-04-29 14:05 | 10.80637 | -74.98417 | 2011 ft | 182 kts | 77° |
| 2026-04-29 14:05 | 10.80916 | -74.97176 | 1994 ft | 177 kts | 77° |
| 2026-04-29 14:05 | 10.81175 | -74.95966 | 1991 ft | 174 kts | 77° |
| 2026-04-29 14:06 | 10.81285 | -74.94725 | 1984 ft | 179 kts | 98° |
| 2026-04-29 14:06 | 10.80941 | -74.93514 | 1988 ft | 178 kts | 104° |
| 2026-04-29 14:06 | 10.80575 | -74.92317 | 1993 ft | 177 kts | 106° |
| 2026-04-29 14:06 | 10.80197 | -74.91123 | 1989 ft | 177 kts | 106° |
| 2026-04-29 14:07 | 10.79823 | -74.89937 | 1988 ft | 176 kts | 106° |
| 2026-04-29 14:07 | 10.79680 | -74.88726 | 1980 ft | 173 kts | 79° |
| 2026-04-29 14:07 | 10.80203 | -74.87652 | 1992 ft | 170 kts | 49° |
| 2026-04-29 14:07 | 10.80976 | -74.86834 | 1967 ft | 151 kts | 47° |
| 2026-04-29 14:08 | 10.81660 | -74.86117 | 1972 ft | 138 kts | 47° |
| 2026-04-29 14:08 | 10.82332 | -74.85411 | 1995 ft | 137 kts | 47° |
| 2026-04-29 14:08 | 10.82992 | -74.84720 | 2015 ft | 138 kts | 47° |
| 2026-04-29 14:08 | 10.83596 | -74.83956 | 1843 ft | 144 kts | 59° |
| 2026-04-29 14:09 | 10.84036 | -74.83060 | 1558 ft | 138 kts | 66° |
| 2026-04-29 14:09 | 10.84438 | -74.82189 | 1265 ft | 136 kts | 61° |
| 2026-04-29 14:09 | 10.85066 | -74.81477 | 919 ft | 134 kts | 39° |
| 2026-04-29 14:09 | 10.85751 | -74.80845 | 623 ft | 135 kts | 41° |
| 2026-04-29 14:10 | 10.86451 | -74.80235 | 419 ft | 130 kts | 40° |
| 2026-04-29 14:10 | 10.87158 | -74.79614 | 295 ft | 131 kts | 39° |
| 2026-04-29 14:10 | 10.87841 | -74.79048 | 176 ft | 125 kts | 40° |
| 2026-04-29 14:10 | 10.88463 | -74.78507 | 95 ft | 108 kts | 34° |
| 2026-04-29 14:11 | 10.88948 | -74.78092 | 86 ft | 80 kts | 39° |
| 2026-04-29 14:11 | 10.89341 | -74.77755 | 70 ft | 68 kts | 39° |
| 2026-04-29 14:11 | 10.89644 | -74.77498 | 68 ft | 32 kts | 40° |
| 2026-04-29 14:11 | 10.89784 | -74.77379 | 60 ft | 27 kts | 40° |
| 2026-04-29 14:12 | 10.89934 | -74.77251 | 62 ft | 18 kts | 38° |
| 2026-04-29 14:12 | 10.89963 | -74.77223 | 58 ft | 0 kts | 60° |
| 2026-04-29 14:13 | 10.89963 | -74.77222 | 56 ft | 0 kts | 61° |
| 2026-04-29 14:13 | 10.89964 | -74.77221 | 61 ft | 0 kts | 62° |
| 2026-04-29 14:13 | 10.89965 | -74.77220 | 56 ft | 0 kts | 63° |
| 2026-04-29 14:13 | 10.89966 | -74.77218 | 56 ft | 0 kts | 64° |
| 2026-04-29 14:14 | 10.89966 | -74.77215 | 61 ft | 0 kts | 70° |
| 2026-04-29 14:14 | 10.89967 | -74.77212 | 61 ft | 0 kts | 75° |
| 2026-04-29 14:14 | 10.89967 | -74.77210 | 61 ft | 0 kts | 80° |
| 2026-04-29 14:14 | 10.89967 | -74.77209 | 61 ft | 0 kts | 82° |
| 2026-04-29 14:15 | 10.89967 | -74.77207 | 61 ft | 0 kts | 83° |